createdAt,value
2022-10-12T00:01:45.492Z,30.80
2022-10-12T00:04:18.051Z,30.70
2022-10-12T00:06:46.215Z,30.60
2022-10-12T00:09:14.409Z,30.50
2022-10-12T00:11:42.563Z,30.90
2022-10-12T00:14:10.721Z,31.40
2022-10-12T00:16:38.880Z,31.40
2022-10-12T00:19:07.032Z,31.20
2022-10-12T00:21:36.588Z,31.10
2022-10-12T00:24:05.405Z,31.10
2022-10-12T00:26:34.061Z,30.80
2022-10-12T00:29:02.820Z,30.70
2022-10-12T00:31:31.362Z,30.70
2022-10-12T00:34:01.039Z,30.60
2022-10-12T00:36:34.062Z,30.50
2022-10-12T00:39:04.332Z,30.80
2022-10-12T00:41:33.480Z,31.30
2022-10-12T00:44:01.696Z,31.50
2022-10-12T00:46:31.165Z,31.30
2022-10-12T00:49:00.489Z,31.20
2022-10-12T00:51:28.685Z,31.10
2022-10-12T00:53:58.282Z,30.80
2022-10-12T00:56:29.305Z,31.40
2022-10-12T00:58:57.489Z,30.60
2022-10-12T01:01:25.751Z,30.50
2022-10-12T01:03:53.982Z,30.50
2022-10-12T01:06:22.204Z,30.70
2022-10-12T01:08:50.402Z,31.00
2022-10-12T01:11:18.549Z,31.30
2022-10-12T01:13:48.194Z,31.50
2022-10-12T01:16:21.195Z,31.70
2022-10-12T01:18:51.683Z,31.80
2022-10-12T01:21:20.046Z,32.00
2022-10-12T01:24:08.709Z,31.70
2022-10-12T01:27:04.796Z,31.50
2022-10-12T01:29:58.680Z,31.30
2022-10-12T01:32:28.121Z,31.20
2022-10-12T01:34:59.117Z,31.00
2022-10-12T01:37:31.179Z,30.80
2022-10-12T01:39:59.432Z,30.70
2022-10-12T01:42:28.628Z,30.90
2022-10-12T01:45:08.540Z,31.40
2022-10-12T01:47:36.931Z,31.50
2022-10-12T01:50:06.134Z,31.40
2022-10-12T01:52:35.691Z,31.30
2022-10-12T01:55:16.551Z,31.10
2022-10-12T01:58:00.002Z,31.00
2022-10-12T02:00:29.650Z,31.50
2022-10-12T02:03:01.094Z,30.80
2022-10-12T02:05:34.321Z,30.70
2022-10-12T02:08:05.215Z,30.50
2022-10-12T02:10:36.742Z,31.00
2022-10-12T02:13:06.767Z,31.20
2022-10-12T02:15:36.348Z,31.50
2022-10-12T02:18:04.875Z,31.30
2022-10-12T02:20:33.334Z,31.20
2022-10-12T02:23:01.491Z,31.10
2022-10-12T02:25:29.700Z,30.90
2022-10-12T02:28:00.107Z,30.80
2022-10-12T02:30:28.309Z,30.60
2022-10-12T02:33:00.167Z,30.60
2022-10-12T02:35:31.161Z,30.50
2022-10-12T02:38:02.647Z,30.60
2022-10-12T02:40:33.186Z,30.90
2022-10-12T02:43:11.696Z,31.30
2022-10-12T02:45:40.277Z,31.40
2022-10-12T02:48:09.941Z,31.10
2022-10-12T02:50:38.415Z,31.00
2022-10-12T02:53:06.606Z,30.80
2022-10-12T02:55:39.198Z,30.70
2022-10-12T02:58:07.371Z,30.70
2022-10-12T03:00:38.431Z,30.50
2022-10-12T03:03:06.603Z,30.40
2022-10-12T03:05:36.190Z,30.40
2022-10-12T03:08:04.631Z,30.80
2022-10-12T03:10:32.810Z,31.30
2022-10-12T03:13:00.975Z,31.30
2022-10-12T03:15:29.193Z,31.70
2022-10-12T03:17:57.355Z,31.80
2022-10-12T03:20:25.583Z,31.90
2022-10-12T03:22:55.592Z,31.70
2022-10-12T03:25:26.711Z,31.60
2022-10-12T03:27:54.935Z,31.30
2022-10-12T03:30:23.138Z,31.10
2022-10-12T03:32:51.346Z,30.90
2022-10-12T03:35:19.574Z,30.90
2022-10-12T03:37:47.716Z,30.80
2022-10-12T03:40:17.567Z,30.60
2022-10-12T03:42:45.831Z,30.90
2022-10-12T03:45:14.253Z,31.30
2022-10-12T03:47:42.386Z,31.50
2022-10-12T03:50:10.954Z,31.40
2022-10-12T03:52:39.140Z,31.30
2022-10-12T03:55:08.143Z,31.10
2022-10-12T03:57:38.013Z,30.90
2022-10-12T04:00:07.428Z,30.90
2022-10-12T04:02:36.605Z,30.70
2022-10-12T04:05:05.333Z,30.70
2022-10-12T04:07:33.614Z,30.50
2022-10-12T04:10:01.883Z,30.60
2022-10-12T04:12:31.178Z,31.00
2022-10-12T04:15:00.771Z,31.40
2022-10-12T04:17:28.943Z,31.30
2022-10-12T04:19:57.099Z,31.20
2022-10-12T04:22:25.285Z,31.00
2022-10-12T04:24:53.460Z,30.90
2022-10-12T04:27:21.578Z,30.80
2022-10-12T04:29:49.764Z,30.70
2022-10-12T04:32:19.408Z,30.60
2022-10-12T04:34:47.644Z,30.50
2022-10-12T04:37:15.830Z,30.30
2022-10-12T04:39:44.065Z,30.80
2022-10-12T04:42:12.240Z,31.30
2022-10-12T04:44:42.011Z,31.40
2022-10-12T04:47:10.266Z,31.20
2022-10-12T04:49:41.962Z,31.00
2022-10-12T04:52:10.243Z,30.90
2022-10-12T04:54:38.774Z,30.80
2022-10-12T04:57:22.164Z,30.60
2022-10-12T04:59:52.791Z,30.50
2022-10-12T05:02:21.578Z,30.50
2022-10-12T05:05:00.804Z,30.40
2022-10-12T05:07:29.073Z,30.70
2022-10-12T05:09:57.276Z,31.20
2022-10-12T05:12:28.401Z,31.30
2022-10-12T05:14:56.638Z,31.60
2022-10-12T05:17:24.868Z,31.70
2022-10-12T05:19:53.082Z,31.90
2022-10-12T05:22:22.743Z,31.70
2022-10-12T05:24:53.827Z,31.60
2022-10-12T05:27:22.265Z,31.40
2022-10-12T05:29:50.547Z,31.20
2022-10-12T05:32:18.817Z,31.00
2022-10-12T05:34:47.034Z,31.60
2022-10-12T05:37:15.362Z,30.80
2022-10-12T05:39:45.028Z,30.60
2022-10-12T05:42:13.452Z,30.90
2022-10-12T05:44:41.638Z,31.30
2022-10-12T05:47:09.983Z,31.40
2022-10-12T05:49:41.188Z,31.40
2022-10-12T05:52:09.661Z,31.30
2022-10-12T05:54:37.851Z,31.10
2022-10-12T05:57:07.903Z,30.90
2022-10-12T05:59:36.507Z,30.80
2022-10-12T06:02:04.777Z,30.70
2022-10-12T06:04:32.984Z,30.70
2022-10-12T06:07:01.188Z,30.50
2022-10-12T06:09:29.460Z,30.40
2022-10-12T06:11:57.674Z,31.00
2022-10-12T06:14:27.337Z,31.30
2022-10-12T06:16:55.552Z,31.30
2022-10-12T06:19:23.790Z,31.20
2022-10-12T06:21:52.047Z,31.00
2022-10-12T06:24:20.267Z,30.90
2022-10-12T06:26:48.421Z,30.90
2022-10-12T06:29:17.595Z,30.70
2022-10-12T06:31:51.401Z,30.50
2022-10-12T06:34:20.128Z,30.40
2022-10-12T06:36:48.344Z,30.30
2022-10-12T06:39:16.507Z,30.70
2022-10-12T06:41:44.937Z,31.10
2022-10-12T06:44:13.152Z,31.40
2022-10-12T06:46:41.363Z,31.10
2022-10-12T06:49:11.447Z,30.90
2022-10-12T06:51:39.680Z,30.80
2022-10-12T06:54:07.901Z,30.70
2022-10-12T06:56:38.212Z,30.40
2022-10-12T06:59:06.467Z,30.40
2022-10-12T07:01:34.771Z,30.30
2022-10-12T07:04:02.986Z,30.10
2022-10-12T07:06:33.029Z,30.20
2022-10-12T07:09:01.310Z,30.60
2022-10-12T07:11:29.496Z,30.90
2022-10-12T07:13:58.852Z,31.20
2022-10-12T07:16:27.089Z,31.40
2022-10-12T07:18:55.273Z,31.60
2022-10-12T07:21:23.503Z,31.50
2022-10-12T07:23:53.266Z,31.10
2022-10-12T07:26:21.583Z,30.90
2022-10-12T07:28:49.807Z,30.70
2022-10-12T07:31:18.041Z,30.50
2022-10-12T07:33:46.185Z,30.50
2022-10-12T07:36:17.315Z,30.30
2022-10-12T07:38:49.246Z,30.10
2022-10-12T07:41:18.946Z,30.10
2022-10-12T07:43:47.087Z,30.70
2022-10-12T07:46:15.346Z,31.10
2022-10-12T07:48:47.454Z,31.30
2022-10-12T07:51:18.493Z,30.70
2022-10-12T07:53:47.198Z,30.70
2022-10-12T07:56:16.255Z,30.50
2022-10-12T07:58:48.747Z,30.30
2022-10-12T08:01:17.050Z,30.20
2022-10-12T08:03:45.205Z,30.10
2022-10-12T08:06:14.170Z,30.00
2022-10-12T08:08:42.461Z,30.00
2022-10-12T08:11:10.701Z,30.30
2022-10-12T08:13:39.007Z,30.80
2022-10-12T08:16:11.130Z,31.20
2022-10-12T08:18:39.307Z,31.00
2022-10-12T08:21:07.943Z,30.80
2022-10-12T08:23:36.297Z,30.70
2022-10-12T08:26:04.731Z,30.50
2022-10-12T08:28:33.003Z,30.50
2022-10-12T08:31:01.324Z,30.40
2022-10-12T08:33:31.023Z,30.30
2022-10-12T08:36:03.210Z,30.20
2022-10-12T08:38:31.552Z,30.30
2022-10-12T08:41:02.839Z,30.60
2022-10-12T08:43:36.430Z,31.00
2022-10-12T08:46:05.333Z,31.20
2022-10-12T08:48:37.118Z,30.90
2022-10-12T08:51:06.804Z,30.70
2022-10-12T08:53:37.334Z,30.60
2022-10-12T08:56:06.187Z,30.50
2022-10-12T08:58:35.163Z,30.40
2022-10-12T09:01:10.631Z,30.30
2022-10-12T09:03:48.256Z,30.20
2022-10-12T09:06:19.075Z,30.20
2022-10-12T09:08:57.523Z,30.60
2022-10-12T09:11:53.509Z,30.80
2022-10-12T09:14:23.440Z,31.50
2022-10-12T09:16:51.786Z,31.70
2022-10-12T09:19:22.616Z,31.80
2022-10-12T09:21:51.096Z,31.50
2022-10-12T09:24:20.810Z,31.30
2022-10-12T09:26:51.434Z,31.10
2022-10-12T09:29:26.929Z,30.90
2022-10-12T09:32:26.733Z,30.80
2022-10-12T09:34:57.423Z,30.60
2022-10-12T09:37:26.479Z,30.50
2022-10-12T09:39:54.693Z,30.40
2022-10-12T09:42:22.816Z,30.40
2022-10-12T09:44:51.835Z,30.90
2022-10-12T09:47:29.717Z,31.10
2022-10-12T09:49:59.787Z,31.10
2022-10-12T09:52:29.945Z,30.80
2022-10-12T09:55:02.362Z,30.70
2022-10-12T09:57:34.882Z,30.60
2022-10-12T10:00:06.448Z,30.40
2022-10-12T10:02:34.915Z,30.30
2022-10-12T10:05:23.957Z,30.30
2022-10-12T10:07:52.162Z,30.20
2022-10-12T10:10:26.729Z,30.20
2022-10-12T10:12:58.973Z,30.70
2022-10-12T10:15:28.730Z,30.70
2022-10-12T10:17:57.567Z,31.00
2022-10-12T10:20:29.952Z,30.70
2022-10-12T10:22:58.338Z,30.60
2022-10-12T10:25:26.489Z,30.50
2022-10-12T10:28:13.739Z,30.30
2022-10-12T10:30:42.500Z,30.20
2022-10-12T10:33:17.017Z,30.10
2022-10-12T10:36:14.084Z,30.10
2022-10-12T10:38:54.729Z,30.10
2022-10-12T10:41:24.426Z,30.50
2022-10-12T10:43:52.611Z,30.40
2022-10-12T10:46:24.290Z,30.80
2022-10-12T10:48:53.704Z,30.60
2022-10-12T10:51:23.371Z,30.40
2022-10-12T10:53:51.756Z,30.40
2022-10-12T10:56:22.234Z,30.30
2022-10-12T10:58:51.919Z,30.10
2022-10-12T11:01:22.787Z,30.10
2022-10-12T11:03:55.068Z,30.00
2022-10-12T11:06:32.387Z,30.00
2022-10-12T11:09:03.903Z,30.90
2022-10-12T11:11:33.734Z,30.20
2022-10-12T11:14:04.677Z,30.80
2022-10-12T11:16:34.751Z,31.30
2022-10-12T11:19:05.624Z,31.50
2022-10-12T11:21:37.665Z,31.50
2022-10-12T11:24:09.934Z,31.10
2022-10-12T11:26:39.227Z,30.90
2022-10-12T11:29:07.408Z,30.70
2022-10-12T11:31:37.854Z,30.60
2022-10-12T11:34:11.264Z,30.50
2022-10-12T11:36:55.775Z,30.40
2022-10-12T11:39:33.801Z,30.30
2022-10-12T11:42:20.771Z,30.10
2022-10-12T11:47:47.147Z,30.40
2022-10-12T11:50:21.989Z,30.90
2022-10-12T11:52:51.971Z,30.80
2022-10-12T11:55:44.710Z,30.60
2022-10-12T11:58:16.111Z,30.50
2022-10-12T12:00:53.913Z,30.30
2022-10-12T12:03:23.891Z,30.30
2022-10-12T12:05:51.924Z,30.10
2022-10-12T12:08:24.897Z,30.10
2022-10-12T12:11:19.457Z,30.10
2022-10-12T12:13:47.494Z,30.30
2022-10-12T12:16:31.970Z,30.50
2022-10-12T12:19:17.823Z,30.90
2022-10-12T12:22:15.271Z,30.60
2022-10-12T12:24:52.246Z,30.50
2022-10-12T12:27:24.472Z,30.40
2022-10-12T12:29:52.666Z,30.30
2022-10-12T12:32:20.675Z,30.20
2022-10-12T12:35:00.087Z,30.10
2022-10-12T12:37:30.258Z,30.00
2022-10-12T12:40:00.661Z,30.10
2022-10-12T12:42:32.392Z,30.40
2022-10-12T12:45:08.969Z,30.50
2022-10-12T12:47:45.566Z,30.80
2022-10-12T12:50:35.515Z,30.50
2022-10-12T12:53:06.853Z,30.50
2022-10-12T12:55:59.549Z,30.40
2022-10-12T12:58:37.887Z,30.20
2022-10-12T13:01:20.159Z,30.10
2022-10-12T13:04:01.032Z,30.10
2022-10-12T13:06:50.559Z,30.10
2022-10-12T13:09:39.707Z,30.20
2022-10-12T13:12:15.430Z,30.20
2022-10-12T13:14:54.601Z,30.80
2022-10-12T13:17:51.624Z,31.30
2022-10-12T13:20:21.181Z,31.50
2022-10-12T13:22:50.899Z,31.30
2022-10-12T13:25:24.881Z,31.10
2022-10-12T13:27:54.634Z,30.90
2022-10-12T13:30:29.543Z,30.70
2022-10-12T13:32:59.432Z,30.60
2022-10-12T13:35:32.544Z,30.50
2022-10-12T13:38:02.607Z,30.40
2022-10-12T13:40:32.522Z,30.30
2022-10-12T13:43:20.524Z,30.40
2022-10-12T13:45:48.978Z,30.50
2022-10-12T13:48:33.971Z,30.80
2022-10-12T13:51:07.704Z,31.10
2022-10-12T13:53:37.391Z,30.80
2022-10-12T13:56:06.854Z,30.60
2022-10-12T13:58:36.569Z,30.50
2022-10-12T14:01:05.295Z,30.40
2022-10-12T14:03:37.716Z,30.30
2022-10-12T14:06:06.063Z,30.20
2022-10-12T14:08:35.196Z,30.90
2022-10-12T14:11:03.359Z,30.20
2022-10-12T14:13:33.044Z,30.30
2022-10-12T14:16:03.222Z,30.70
2022-10-12T14:18:32.885Z,30.90
2022-10-12T14:21:16.442Z,30.80
2022-10-12T14:23:45.904Z,30.60
2022-10-12T14:26:33.426Z,30.50
2022-10-12T14:29:01.967Z,30.40
2022-10-12T14:31:52.414Z,30.20
2022-10-12T14:34:39.111Z,30.20
2022-10-12T14:37:21.011Z,30.10
2022-10-12T14:39:49.686Z,30.20
2022-10-12T14:42:21.158Z,30.70
2022-10-12T14:44:49.556Z,30.70
2022-10-12T14:47:24.059Z,31.00
2022-10-12T14:49:53.071Z,30.70
2022-10-12T14:52:22.136Z,30.60
2022-10-12T14:54:53.827Z,30.50
2022-10-12T14:57:22.190Z,30.40
2022-10-12T14:59:50.509Z,30.90
2022-10-12T15:02:19.823Z,30.20
2022-10-12T15:04:49.365Z,30.10
2022-10-12T15:07:20.132Z,30.20
2022-10-12T15:09:48.393Z,30.40
2022-10-12T15:12:20.672Z,30.90
2022-10-12T15:14:49.465Z,31.10
2022-10-12T15:17:19.385Z,31.40
2022-10-12T15:19:49.488Z,31.70
2022-10-12T15:22:18.770Z,31.70
2022-10-12T15:24:47.048Z,31.30
2022-10-12T15:27:15.532Z,31.10
2022-10-12T15:29:43.896Z,30.90
2022-10-12T15:32:12.667Z,30.80
2022-10-12T15:34:40.876Z,30.70
2022-10-12T15:37:10.465Z,30.50
2022-10-12T15:39:39.124Z,30.40
2022-10-12T15:42:07.290Z,30.30
2022-10-12T15:44:40.139Z,30.60
2022-10-12T15:47:09.571Z,30.70
2022-10-12T15:49:37.886Z,30.80
2022-10-12T15:52:06.041Z,31.10
2022-10-12T15:54:35.625Z,30.90
2022-10-12T15:57:03.780Z,30.80
2022-10-12T15:59:32.091Z,30.70
2022-10-12T16:02:00.239Z,30.50
2022-10-12T16:04:28.813Z,30.40
2022-10-12T16:07:02.469Z,30.30
2022-10-12T16:09:31.579Z,30.20
2022-10-12T16:12:02.904Z,30.40
2022-10-12T16:14:31.732Z,30.70
2022-10-12T16:17:04.219Z,30.90
2022-10-12T16:19:32.592Z,31.10
2022-10-12T16:22:03.474Z,30.80
2022-10-12T16:24:31.810Z,30.70
2022-10-12T16:27:01.879Z,30.70
2022-10-12T16:29:30.532Z,30.50
2022-10-12T16:31:59.297Z,30.40
2022-10-12T16:34:28.236Z,30.30
2022-10-12T16:36:57.167Z,30.20
2022-10-12T16:39:27.569Z,30.30
2022-10-12T16:41:55.855Z,30.60
2022-10-12T16:44:25.869Z,30.80
2022-10-12T16:46:54.763Z,31.10
2022-10-12T16:49:23.703Z,30.90
2022-10-12T16:51:53.447Z,30.70
2022-10-12T16:54:23.512Z,30.60
2022-10-12T16:56:52.265Z,30.50
2022-10-12T16:59:20.689Z,30.50
2022-10-12T17:01:51.748Z,30.30
2022-10-12T17:04:21.325Z,30.30
2022-10-12T17:06:49.635Z,30.30
2022-10-12T17:09:17.971Z,30.50
2022-10-12T17:11:46.375Z,30.90
2022-10-12T17:14:16.849Z,31.10
2022-10-12T17:16:52.283Z,31.50
2022-10-12T17:19:23.050Z,31.80
2022-10-12T17:21:52.583Z,31.90
2022-10-12T17:24:21.764Z,31.50
2022-10-12T17:26:50.228Z,31.30
2022-10-12T17:29:18.994Z,31.10
2022-10-12T17:31:47.761Z,30.90
2022-10-12T17:34:18.814Z,30.80
2022-10-12T17:36:48.719Z,30.70
2022-10-12T17:39:17.293Z,30.60
2022-10-12T17:41:45.631Z,30.50
2022-10-12T17:44:14.050Z,30.70
2022-10-12T17:46:42.627Z,31.00
2022-10-12T17:49:13.049Z,31.10
2022-10-12T17:51:41.540Z,31.30
2022-10-12T17:54:12.502Z,31.10
2022-10-12T17:56:40.831Z,30.90
2022-10-12T17:59:09.390Z,30.80
2022-10-12T18:01:38.613Z,30.60
2022-10-12T18:04:07.065Z,30.60
2022-10-12T18:06:35.564Z,30.50
2022-10-12T18:09:04.093Z,30.40
2022-10-12T18:11:33.995Z,30.50
2022-10-12T18:14:02.368Z,30.80
2022-10-12T18:16:32.138Z,31.00
2022-10-12T18:19:01.228Z,31.30
2022-10-12T18:21:30.306Z,31.00
2022-10-12T18:23:58.606Z,30.90
2022-10-12T18:26:30.621Z,30.80
2022-10-12T18:29:01.077Z,30.60
2022-10-12T18:31:29.481Z,30.50
2022-10-12T18:33:57.893Z,30.50
2022-10-12T18:36:26.775Z,30.40
2022-10-12T18:38:55.098Z,30.40
2022-10-12T18:41:25.773Z,30.70
2022-10-12T18:43:58.081Z,31.00
2022-10-12T18:46:28.542Z,31.30
2022-10-12T18:48:56.817Z,31.10
2022-10-12T18:51:26.614Z,30.90
2022-10-12T18:53:54.840Z,30.70
2022-10-12T18:56:23.082Z,30.70
2022-10-12T18:58:51.257Z,30.50
2022-10-12T19:01:20.543Z,30.40
2022-10-12T19:03:50.166Z,30.30
2022-10-12T19:06:19.249Z,30.20
2022-10-12T19:08:48.034Z,30.70
2022-10-12T19:11:17.640Z,30.90
2022-10-12T19:13:46.107Z,31.10
2022-10-12T19:16:15.859Z,31.40
2022-10-12T19:18:44.157Z,31.70
2022-10-12T19:21:14.621Z,31.90
2022-10-12T19:23:43.362Z,31.60
2022-10-12T19:26:13.110Z,31.50
2022-10-12T19:28:41.357Z,31.30
2022-10-12T19:31:10.245Z,31.10
2022-10-12T19:33:38.431Z,30.90
2022-10-12T19:36:07.308Z,30.80
2022-10-12T19:38:36.921Z,30.70
2022-10-12T19:41:05.237Z,30.60
2022-10-12T19:43:33.587Z,30.70
2022-10-12T19:46:03.410Z,31.00
2022-10-12T19:48:31.576Z,31.30
2022-10-12T19:51:00.149Z,31.40
2022-10-12T19:53:28.460Z,31.20
2022-10-12T19:56:01.689Z,31.00
2022-10-12T19:58:29.937Z,30.90
2022-10-12T20:01:02.255Z,30.80
2022-10-12T20:03:30.529Z,30.60
2022-10-12T20:05:58.664Z,30.50
2022-10-12T20:08:26.971Z,30.50
2022-10-12T20:10:55.232Z,30.50
2022-10-12T20:13:24.856Z,30.90
2022-10-12T20:15:53.936Z,31.10
2022-10-12T20:18:22.217Z,31.30
2022-10-12T20:20:50.443Z,31.20
2022-10-12T20:23:18.632Z,31.10
2022-10-12T20:25:48.360Z,30.90
2022-10-12T20:28:16.669Z,30.80
2022-10-12T20:30:46.818Z,30.60
2022-10-12T20:33:16.233Z,30.50
2022-10-12T20:35:47.128Z,30.40
2022-10-12T20:38:15.375Z,30.40
2022-10-12T20:40:43.664Z,30.80
2022-10-12T20:43:11.890Z,31.00
2022-10-12T20:45:40.101Z,31.20
2022-10-12T20:48:09.781Z,31.10
2022-10-12T20:50:38.603Z,31.10
2022-10-12T20:53:06.842Z,30.90
2022-10-12T20:55:35.081Z,30.80
2022-10-12T20:58:03.421Z,30.60
2022-10-12T21:00:31.714Z,30.50
2022-10-12T21:02:59.969Z,30.50
2022-10-12T21:05:29.739Z,30.40
2022-10-12T21:07:57.928Z,30.60
2022-10-12T21:10:26.176Z,30.80
2022-10-12T21:12:54.379Z,31.20
2022-10-12T21:15:22.603Z,31.40
2022-10-12T21:17:50.855Z,31.60
2022-10-12T21:20:19.563Z,31.80
2022-10-12T21:22:49.170Z,31.80
2022-10-12T21:25:17.614Z,31.60
2022-10-12T21:27:45.873Z,31.40
2022-10-12T21:30:17.295Z,31.20
2022-10-12T21:32:45.471Z,31.10
2022-10-12T21:35:13.720Z,30.90
2022-10-12T21:37:41.954Z,30.80
2022-10-12T21:40:13.800Z,30.60
2022-10-12T21:42:42.002Z,30.50
2022-10-12T21:45:10.805Z,31.10
2022-10-12T21:47:39.062Z,31.30
2022-10-12T21:50:09.470Z,31.50
2022-10-12T21:52:37.704Z,31.90
2022-10-12T21:55:06.361Z,31.20
2022-10-12T21:57:36.455Z,31.00
2022-10-12T22:00:05.616Z,30.90
2022-10-12T22:02:33.859Z,30.70
2022-10-12T22:05:02.057Z,30.60
2022-10-12T22:07:30.263Z,30.50
2022-10-12T22:09:58.468Z,30.40
2022-10-12T22:12:26.690Z,30.70
2022-10-12T22:14:56.289Z,31.10
2022-10-12T22:17:24.575Z,31.30
2022-10-12T22:19:52.838Z,31.30
2022-10-12T22:22:21.180Z,31.10
2022-10-12T22:24:49.496Z,30.90
2022-10-12T22:27:17.689Z,30.80
2022-10-12T22:29:45.961Z,30.70
2022-10-12T22:32:16.252Z,30.60
2022-10-12T22:34:44.708Z,30.50
2022-10-12T22:37:12.992Z,30.40
2022-10-12T22:39:41.239Z,30.60
2022-10-12T22:42:09.471Z,30.90
2022-10-12T22:44:38.133Z,31.30
2022-10-12T22:47:06.681Z,31.20
2022-10-12T22:49:36.302Z,31.10
2022-10-12T22:52:04.516Z,30.90
2022-10-12T22:54:32.727Z,30.80
2022-10-12T22:57:00.951Z,30.70
2022-10-12T22:59:29.219Z,30.60
2022-10-12T23:01:57.433Z,30.50
2022-10-12T23:04:25.641Z,30.40
2022-10-12T23:06:55.220Z,30.30
2022-10-12T23:09:23.781Z,30.90
2022-10-12T23:11:52.316Z,31.10
2022-10-12T23:14:20.600Z,31.20
2022-10-12T23:16:48.828Z,31.70
2022-10-12T23:19:17.033Z,31.70
2022-10-12T23:21:45.215Z,31.90
2022-10-12T23:24:14.817Z,31.60
2022-10-12T23:26:43.012Z,31.50
2022-10-12T23:29:11.212Z,31.30
2022-10-12T23:31:39.438Z,31.10
2022-10-12T23:34:08.074Z,31.00
2022-10-12T23:36:36.309Z,30.90
2022-10-12T23:39:04.883Z,30.70
2022-10-12T23:41:34.520Z,30.70
2022-10-12T23:44:02.807Z,30.90
2022-10-12T23:46:31.069Z,31.20
2022-10-12T23:48:59.343Z,31.40
2022-10-12T23:51:27.652Z,31.40
2022-10-12T23:53:55.873Z,31.20
2022-10-12T23:56:24.061Z,31.10
2022-10-12T23:58:53.638Z,31.00
